Time;durP1;ratioP1;P1;durP2;ratioP2;P2;SDS_P1;SDS_P2;PMS_P1;PMS_P2;Temp;Humidity;BMP_temperature;BMP_pressure;BME280_temperature;BME280_humidity;BME280_pressure;Samples;Min_cycle;Max_cycle;Signal;HPM_P1;HPM_P2
2023/12/21 00:01:10;0.00;0.00;0.62;0.00;0.00;0.62;2.20;1.43;;;21.20;27.40;;;;;;2260807;61;20369;-54
2023/12/21 00:03:55;0.00;0.00;0.62;0.00;0.00;0.62;2.00;1.00;;;21.20;27.40;;;;;;2260364;61;20954;-57
2023/12/21 00:06:39;0.00;0.00;0.62;0.00;0.00;0.62;2.30;1.20;;;21.20;27.40;;;;;;2261030;61;20368;-54
2023/12/21 00:09:25;0.00;0.00;0.62;0.00;0.00;0.62;2.17;1.07;;;21.20;27.40;;;;;;2261023;61;20516;-54
2023/12/21 00:12:10;0.00;0.00;0.62;0.00;0.00;0.62;2.03;1.10;;;21.20;27.40;;;;;;2260147;61;20405;-53
2023/12/21 00:14:54;0.00;0.00;0.62;0.00;0.00;0.62;1.80;1.10;;;21.20;27.40;;;;;;2260808;61;20450;-55
2023/12/21 00:17:38;0.00;0.00;0.62;0.00;0.00;0.62;1.50;0.80;;;21.20;27.40;;;;;;2260797;61;20369;-53
2023/12/21 00:20:23;0.00;0.00;0.62;0.00;0.00;0.62;2.40;1.20;;;21.20;27.40;;;;;;2260829;61;20404;-52
2023/12/21 00:23:08;0.00;0.00;0.62;0.00;0.00;0.62;1.67;0.97;;;21.20;27.40;;;;;;2260251;61;20365;-55
2023/12/21 00:25:54;0.00;0.00;0.62;0.00;0.00;0.62;2.00;1.20;;;21.20;27.40;;;;;;2260550;61;20464;-53
2023/12/21 00:28:39;0.00;0.00;0.62;0.00;0.00;0.62;1.77;1.20;;;21.20;27.40;;;;;;2260948;61;20450;-54
2023/12/21 00:31:23;0.00;0.00;0.62;0.00;0.00;0.62;1.50;1.00;;;21.20;27.40;;;;;;2260779;61;20385;-55
2023/12/21 00:34:08;0.00;0.00;0.62;0.00;0.00;0.62;1.70;0.93;;;21.20;27.40;;;;;;2260512;61;20384;-54
2023/12/21 00:36:52;0.00;0.00;0.62;0.00;0.00;0.62;2.00;1.20;;;21.20;27.40;;;;;;2260901;61;20405;-50
2023/12/21 00:39:37;0.00;0.00;0.62;0.00;0.00;0.62;1.80;1.07;;;21.20;27.40;;;;;;2260673;61;20436;-56
2023/12/21 00:42:25;0.00;0.00;0.62;0.00;0.00;0.62;1.50;0.90;;;21.20;27.40;;;;;;2260097;61;20404;-51
2023/12/21 00:45:10;0.00;0.00;0.62;0.00;0.00;0.62;1.57;1.00;;;21.20;27.40;;;;;;2260775;61;20365;-55
2023/12/21 00:47:55;0.00;0.00;0.62;0.00;0.00;0.62;1.97;0.87;;;21.20;27.40;;;;;;2260413;61;20380;-50
2023/12/21 00:50:39;0.00;0.00;0.62;0.00;0.00;0.62;1.70;1.00;;;21.20;27.40;;;;;;2260804;61;20393;-59
2023/12/21 00:53:24;0.00;0.00;0.62;0.00;0.00;0.62;1.70;0.90;;;21.20;27.40;;;;;;2260311;61;20396;-55
2023/12/21 00:56:09;0.00;0.00;0.62;0.00;0.00;0.62;1.40;0.70;;;21.20;27.40;;;;;;2260348;61;20425;-52
2023/12/21 00:58:59;0.00;0.00;0.62;0.00;0.00;0.62;1.90;1.00;;;21.20;28.00;;;;;;2260620;61;20393;-53
2023/12/21 01:01:44;0.00;0.00;0.62;0.00;0.00;0.62;1.67;0.80;;;21.20;27.40;;;;;;2260217;61;20405;-54
2023/12/21 01:04:28;0.00;0.00;0.62;0.00;0.00;0.62;1.63;1.00;;;21.20;27.40;;;;;;2260478;61;20404;-52
2023/12/21 01:07:13;0.00;0.00;0.62;0.00;0.00;0.62;1.60;0.80;;;21.20;27.40;;;;;;2260711;61;20451;-55
2023/12/21 01:09:57;0.00;0.00;0.62;0.00;0.00;0.62;1.40;0.80;;;21.20;27.40;;;;;;2260556;61;20377;-55
2023/12/21 01:12:42;0.00;0.00;0.62;0.00;0.00;0.62;1.80;1.00;;;21.20;27.40;;;;;;2260353;61;20365;-52
2023/12/21 01:15:28;0.00;0.00;0.62;0.00;0.00;0.62;1.40;0.80;;;21.20;27.40;;;;;;2260651;61;20457;-53
2023/12/21 01:18:12;0.00;0.00;0.62;0.00;0.00;0.62;1.47;0.80;;;21.20;27.40;;;;;;2260163;61;20796;-52
2023/12/21 01:20:57;0.00;0.00;0.62;0.00;0.00;0.62;1.60;0.90;;;21.20;27.40;;;;;;2260754;61;20745;-53
2023/12/21 01:23:41;0.00;0.00;0.62;0.00;0.00;0.62;1.50;0.83;;;21.20;27.40;;;;;;2260289;61;20443;-51
2023/12/21 01:26:26;0.00;0.00;0.62;0.00;0.00;0.62;2.23;0.83;;;21.20;27.40;;;;;;2260434;61;20360;-55
2023/12/21 01:29:11;0.00;0.00;0.62;0.00;0.00;0.62;1.50;0.90;;;21.20;27.40;;;;;;2260652;61;20388;-53
2023/12/21 01:31:58;0.00;0.00;0.62;0.00;0.00;0.62;1.87;1.10;;;21.20;27.40;;;;;;2259806;61;20376;-55
2023/12/21 01:34:42;0.00;0.00;0.62;0.00;0.00;0.62;1.60;0.90;;;21.20;27.40;;;;;;2260519;61;20365;-56
2023/12/21 01:37:27;0.00;0.00;0.62;0.00;0.00;0.62;2.13;0.90;;;21.20;27.40;;;;;;2260538;61;20424;-57
2023/12/21 01:40:12;0.00;0.00;0.62;0.00;0.00;0.62;1.47;0.83;;;21.20;27.40;;;;;;2259822;61;20427;-53
2023/12/21 01:42:57;0.00;0.00;0.62;0.00;0.00;0.62;1.63;1.00;;;21.20;27.50;;;;;;2260108;61;20361;-56
2023/12/21 01:45:41;0.00;0.00;0.62;0.00;0.00;0.62;1.60;0.80;;;21.20;27.40;;;;;;2260355;61;20377;-56
2023/12/21 01:48:30;0.00;0.00;0.62;0.00;0.00;0.62;1.37;0.70;;;21.20;27.40;;;;;;2256739;61;20511;-56
2023/12/21 01:51:14;0.00;0.00;0.62;0.00;0.00;0.62;1.63;0.87;;;21.20;27.40;;;;;;2260272;61;20392;-53
2023/12/21 01:54:03;0.00;0.00;0.62;0.00;0.00;0.62;1.60;0.83;;;21.20;27.40;;;;;;2260366;61;20472;-53
2023/12/21 01:56:48;0.00;0.00;0.62;0.00;0.00;0.62;1.47;0.80;;;21.20;27.40;;;;;;2260092;61;20365;-54
2023/12/21 01:59:33;0.00;0.00;0.62;0.00;0.00;0.62;1.60;0.80;;;21.20;27.40;;;;;;2260453;61;20447;-57
2023/12/21 02:02:20;0.00;0.00;0.62;0.00;0.00;0.62;1.40;0.80;;;21.20;27.40;;;;;;2259793;61;20449;-55
2023/12/21 02:05:07;0.00;0.00;0.62;0.00;0.00;0.62;1.47;0.80;;;21.20;27.40;;;;;;2260375;61;20361;-56
2023/12/21 02:07:52;0.00;0.00;0.62;0.00;0.00;0.62;1.50;0.80;;;21.20;27.50;;;;;;2260476;61;20373;-56
2023/12/21 02:10:39;0.00;0.00;0.62;0.00;0.00;0.62;1.77;0.80;;;21.20;27.50;;;;;;2260314;61;20364;-56
2023/12/21 02:13:24;0.00;0.00;0.62;0.00;0.00;0.62;1.43;0.70;;;21.20;27.40;;;;;;2259906;61;20385;-55
2023/12/21 02:16:15;0.00;0.00;0.62;0.00;0.00;0.62;1.33;0.77;;;21.20;27.40;;;;;;2260614;61;20396;-56
2023/12/21 02:19:00;0.00;0.00;0.62;0.00;0.00;0.62;1.23;0.70;;;21.30;27.50;;;;;;2260300;61;20439;-59
2023/12/21 02:21:47;0.00;0.00;0.62;0.00;0.00;0.62;1.40;0.70;;;21.20;27.40;;;;;;2260002;61;20365;-53
2023/12/21 02:24:33;0.00;0.00;0.62;0.00;0.00;0.62;1.40;0.70;;;21.20;27.40;;;;;;2257061;61;20774;-55
2023/12/21 02:27:18;0.00;0.00;0.62;0.00;0.00;0.62;1.40;0.80;;;21.20;27.40;;;;;;2260535;61;20519;-54
2023/12/21 02:30:03;0.00;0.00;0.62;0.00;0.00;0.62;1.30;0.63;;;21.20;27.50;;;;;;2533143;53;20465;-57
2023/12/21 02:32:48;0.00;0.00;0.62;0.00;0.00;0.62;1.63;0.70;;;21.20;27.50;;;;;;2260522;61;20365;-54
2023/12/21 02:35:33;0.00;0.00;0.62;0.00;0.00;0.62;1.30;0.70;;;21.30;27.50;;;;;;2261099;61;20364;-57
2023/12/21 02:38:17;0.00;0.00;0.62;0.00;0.00;0.62;1.40;0.70;;;21.30;27.50;;;;;;2261093;61;20457;-56
2023/12/21 02:41:03;0.00;0.00;0.62;0.00;0.00;0.62;1.30;0.70;;;21.20;27.40;;;;;;2260885;61;20406;-55
2023/12/21 02:43:51;0.00;0.00;0.62;0.00;0.00;0.62;1.50;0.83;;;21.20;27.40;;;;;;2493230;53;20422;-55
2023/12/21 02:46:36;0.00;0.00;0.62;0.00;0.00;0.62;1.30;0.60;;;21.20;27.40;;;;;;2259715;61;20402;-56
2023/12/21 02:49:20;0.00;0.00;0.62;0.00;0.00;0.62;1.30;0.60;;;21.30;27.50;;;;;;2265083;61;20961;-56
2023/12/21 02:52:06;0.00;0.00;0.62;0.00;0.00;0.62;1.50;0.87;;;21.30;27.50;;;;;;2264612;61;20480;-51
2023/12/21 02:54:50;0.00;0.00;0.62;0.00;0.00;0.62;1.60;0.73;;;21.30;27.50;;;;;;2264752;61;20474;-54
2023/12/21 02:57:36;0.00;0.00;0.62;0.00;0.00;0.62;2.13;0.60;;;21.30;27.50;;;;;;2265305;61;21006;-51
2023/12/21 03:00:21;0.00;0.00;0.62;0.00;0.00;0.62;1.20;0.60;;;21.30;27.50;;;;;;2261732;61;20443;-55
2023/12/21 03:03:05;0.00;0.00;0.62;0.00;0.00;0.62;1.60;0.80;;;21.30;27.50;;;;;;2261434;61;20355;-57
2023/12/21 03:05:50;0.00;0.00;0.62;0.00;0.00;0.62;3.40;0.70;;;21.20;27.40;;;;;;2265096;61;20373;-56
2023/12/21 03:08:34;0.00;0.00;0.62;0.00;0.00;0.62;1.30;0.70;;;21.30;27.50;;;;;;2264664;61;20420;-54
2023/12/21 03:11:19;0.00;0.00;0.62;0.00;0.00;0.62;1.60;0.67;;;21.30;27.50;;;;;;2264992;61;20426;-52
2023/12/21 03:14:05;0.00;0.00;0.62;0.00;0.00;0.62;1.40;0.70;;;21.30;27.50;;;;;;2264999;61;20768;-57
2023/12/21 03:16:50;0.00;0.00;0.62;0.00;0.00;0.62;1.27;0.60;;;21.30;27.50;;;;;;2264890;61;20387;-57
2023/12/21 03:19:35;0.00;0.00;0.62;0.00;0.00;0.62;1.40;0.73;;;21.20;27.40;;;;;;2261470;61;20427;-55
2023/12/21 03:22:19;0.00;0.00;0.62;0.00;0.00;0.62;1.30;0.60;;;21.20;27.40;;;;;;2264759;61;20761;-54
2023/12/21 03:25:05;0.00;0.00;0.62;0.00;0.00;0.62;2.20;0.67;;;21.20;27.50;;;;;;2264777;61;20392;-57
2023/12/21 03:27:49;0.00;0.00;0.62;0.00;0.00;0.62;1.40;0.80;;;21.30;27.50;;;;;;2264868;61;20426;-53
2023/12/21 03:30:35;0.00;0.00;0.62;0.00;0.00;0.62;1.40;0.70;;;21.30;27.50;;;;;;2264543;61;20392;-52
2023/12/21 03:33:20;0.00;0.00;0.62;0.00;0.00;0.62;1.50;0.70;;;21.30;27.50;;;;;;2264838;61;20372;-58
2023/12/21 03:36:06;0.00;0.00;0.62;0.00;0.00;0.62;1.30;0.70;;;21.30;27.50;;;;;;2264945;61;20363;-56
2023/12/21 03:38:50;0.00;0.00;0.62;0.00;0.00;0.62;1.30;0.60;;;21.30;27.50;;;;;;2264554;61;20388;-54
2023/12/21 03:41:35;0.00;0.00;0.62;0.00;0.00;0.62;1.20;0.60;;;21.30;27.50;;;;;;2264616;61;20414;-61
2023/12/21 03:44:20;0.00;0.00;0.62;0.00;0.00;0.62;1.43;0.60;;;21.30;27.50;;;;;;2265033;61;20363;-59
2023/12/21 03:47:06;0.00;0.00;0.62;0.00;0.00;0.62;1.40;0.77;;;21.30;28.10;;;;;;2264140;61;20384;-52
2023/12/21 03:49:51;0.00;0.00;0.62;0.00;0.00;0.62;1.30;0.70;;;21.30;27.50;;;;;;2265059;61;20472;-52
2023/12/21 03:52:36;0.00;0.00;0.62;0.00;0.00;0.62;1.40;0.70;;;21.30;27.50;;;;;;2264333;61;20384;-54
2023/12/21 03:55:20;0.00;0.00;0.62;0.00;0.00;0.62;1.40;0.70;;;21.30;27.50;;;;;;2264924;61;20506;-55
2023/12/21 03:58:05;0.00;0.00;0.62;0.00;0.00;0.62;1.40;0.60;;;21.30;27.50;;;;;;2264807;61;20406;-55
2023/12/21 04:00:49;0.00;0.00;0.62;0.00;0.00;0.62;1.30;0.60;;;21.30;27.50;;;;;;2264538;61;20386;-56
2023/12/21 04:03:35;0.00;0.00;0.62;0.00;0.00;0.62;1.30;0.60;;;21.30;28.00;;;;;;2264655;61;20368;-56
2023/12/21 04:06:20;0.00;0.00;0.62;0.00;0.00;0.62;1.20;0.60;;;21.30;27.50;;;;;;2264884;61;20442;-52
2023/12/21 04:09:05;0.00;0.00;0.62;0.00;0.00;0.62;1.20;0.60;;;21.30;27.50;;;;;;2264707;61;20375;-51
2023/12/21 04:11:50;0.00;0.00;0.62;0.00;0.00;0.62;1.33;0.60;;;21.30;27.50;;;;;;2264477;61;20391;-53
2023/12/21 04:14:35;0.00;0.00;0.62;0.00;0.00;0.62;1.60;0.80;;;21.30;27.50;;;;;;2264829;61;20395;-55
2023/12/21 04:17:19;0.00;0.00;0.62;0.00;0.00;0.62;1.23;0.60;;;21.30;27.50;;;;;;2264806;61;20422;-57
2023/12/21 04:20:07;0.00;0.00;0.62;0.00;0.00;0.62;1.60;0.70;;;21.30;27.50;;;;;;2264776;61;20994;-54
2023/12/21 04:22:52;0.00;0.00;0.62;0.00;0.00;0.62;1.20;0.60;;;21.30;27.50;;;;;;2264207;61;20360;-55
2023/12/21 04:25:37;0.00;0.00;0.62;0.00;0.00;0.62;1.20;0.60;;;21.30;27.50;;;;;;2264933;61;20694;-52
2023/12/21 04:28:21;0.00;0.00;0.62;0.00;0.00;0.62;1.20;0.60;;;21.30;27.50;;;;;;2265037;61;20415;-56
2023/12/21 04:31:06;0.00;0.00;0.62;0.00;0.00;0.62;1.40;0.70;;;21.30;27.50;;;;;;2264564;61;20392;-50
2023/12/21 04:33:52;0.00;0.00;0.62;0.00;0.00;0.62;1.47;0.67;;;21.30;27.50;;;;;;2264521;61;20458;-54
2023/12/21 04:36:38;0.00;0.00;0.62;0.00;0.00;0.62;1.43;0.67;;;21.30;27.50;;;;;;2264750;61;20417;-57
2023/12/21 04:39:23;0.00;0.00;0.62;0.00;0.00;0.62;1.80;0.70;;;21.30;27.50;;;;;;2264839;61;20742;-55
2023/12/21 04:42:07;0.00;0.00;0.62;0.00;0.00;0.62;1.30;0.60;;;21.30;27.50;;;;;;2264387;61;20376;-54
2023/12/21 04:44:52;0.00;0.00;0.62;0.00;0.00;0.62;1.30;0.60;;;21.30;27.50;;;;;;2263869;61;20767;-56
2023/12/21 04:47:38;0.00;0.00;0.62;0.00;0.00;0.62;1.30;0.60;;;21.30;27.50;;;;;;2263915;61;20368;-54
2023/12/21 04:50:22;0.00;0.00;0.62;0.00;0.00;0.62;1.30;0.70;;;21.30;27.50;;;;;;2264650;61;20392;-54
2023/12/21 04:53:08;0.00;0.00;0.62;0.00;0.00;0.62;1.20;0.60;;;21.30;27.50;;;;;;2263731;61;20360;-52
2023/12/21 04:55:53;0.00;0.00;0.62;0.00;0.00;0.62;1.50;0.70;;;21.30;27.50;;;;;;2264938;61;20449;-55
2023/12/21 04:58:38;0.00;0.00;0.62;0.00;0.00;0.62;1.40;0.70;;;21.30;27.50;;;;;;2264688;61;20427;-55
2023/12/21 05:01:22;0.00;0.00;0.62;0.00;0.00;0.62;1.30;0.60;;;21.30;27.50;;;;;;2264397;61;20397;-53
2023/12/21 05:04:07;0.00;0.00;0.62;0.00;0.00;0.62;1.30;0.63;;;21.30;27.50;;;;;;2264712;61;20392;-57
2023/12/21 05:06:52;0.00;0.00;0.62;0.00;0.00;0.62;1.30;0.60;;;21.30;27.50;;;;;;2264569;61;20360;-56
2023/12/21 05:09:38;0.00;0.00;0.62;0.00;0.00;0.62;1.37;0.70;;;21.30;27.50;;;;;;2264712;61;20380;-52
2023/12/21 05:12:23;0.00;0.00;0.62;0.00;0.00;0.62;1.27;0.60;;;21.30;27.50;;;;;;2264148;61;20687;-57
2023/12/21 05:15:09;0.00;0.00;0.62;0.00;0.00;0.62;1.20;0.60;;;21.30;27.50;;;;;;2264434;61;20414;-58
2023/12/21 05:17:54;0.00;0.00;0.62;0.00;0.00;0.62;1.23;0.53;;;21.30;27.50;;;;;;2264831;61;20367;-54
2023/12/21 05:20:38;0.00;0.00;0.62;0.00;0.00;0.62;1.30;0.60;;;21.30;27.50;;;;;;2264598;61;20395;-56
2023/12/21 05:23:23;0.00;0.00;0.62;0.00;0.00;0.62;1.20;0.53;;;21.30;27.50;;;;;;2264027;61;20372;-57
2023/12/21 05:26:13;0.00;0.00;0.62;0.00;0.00;0.62;1.20;0.50;;;21.30;27.50;;;;;;2264643;61;20391;-53
2023/12/21 05:28:57;0.00;0.00;0.62;0.00;0.00;0.62;1.30;0.60;;;21.30;27.50;;;;;;2264377;61;20783;-57
2023/12/21 05:31:42;0.00;0.00;0.62;0.00;0.00;0.62;1.23;0.60;;;21.30;27.50;;;;;;2264322;61;20438;-52
2023/12/21 05:34:26;0.00;0.00;0.62;0.00;0.00;0.62;1.20;0.60;;;21.30;27.50;;;;;;2264736;61;20953;-54
2023/12/21 05:37:11;0.00;0.00;0.62;0.00;0.00;0.62;1.40;0.60;;;21.30;27.50;;;;;;2264259;61;20685;-52
2023/12/21 05:39:56;0.00;0.00;0.62;0.00;0.00;0.62;1.30;0.60;;;21.30;27.50;;;;;;2264577;61;20387;-54
2023/12/21 05:42:42;0.00;0.00;0.62;0.00;0.00;0.62;1.20;0.60;;;21.30;27.50;;;;;;2264322;61;20356;-51
2023/12/21 05:45:27;0.00;0.00;0.62;0.00;0.00;0.62;1.27;0.60;;;21.30;27.50;;;;;;2264469;61;20479;-53
2023/12/21 05:48:12;0.00;0.00;0.62;0.00;0.00;0.62;1.20;0.60;;;21.30;27.50;;;;;;2264950;61;20925;-53
2023/12/21 05:50:56;0.00;0.00;0.62;0.00;0.00;0.62;1.30;0.70;;;21.30;27.50;;;;;;2264386;61;20418;-56
2023/12/21 05:53:41;0.00;0.00;0.62;0.00;0.00;0.62;1.30;0.60;;;21.30;27.50;;;;;;2264194;61;20380;-55
2023/12/21 05:56:25;0.00;0.00;0.62;0.00;0.00;0.62;1.37;0.60;;;21.30;27.50;;;;;;2264876;61;20368;-55
2023/12/21 05:59:11;0.00;0.00;0.62;0.00;0.00;0.62;1.30;0.73;;;21.30;27.50;;;;;;2264377;61;20379;-53
2023/12/21 06:01:56;0.00;0.00;0.62;0.00;0.00;0.62;1.20;0.60;;;21.30;27.50;;;;;;2264155;61;20390;-55
2023/12/21 06:04:41;0.00;0.00;0.62;0.00;0.00;0.62;1.77;0.70;;;21.30;27.50;;;;;;2264633;61;20364;-55
2023/12/21 06:07:25;0.00;0.00;0.62;0.00;0.00;0.62;1.40;0.60;;;21.30;27.50;;;;;;2264201;61;20405;-54
2023/12/21 06:10:10;0.00;0.00;0.62;0.00;0.00;0.62;1.30;0.60;;;21.30;27.50;;;;;;2264607;61;20380;-54
2023/12/21 06:12:54;0.00;0.00;0.62;0.00;0.00;0.62;1.27;0.60;;;21.40;27.60;;;;;;2264073;61;20985;-55
2023/12/21 06:15:40;0.00;0.00;0.62;0.00;0.00;0.62;1.33;0.67;;;21.30;27.50;;;;;;2264639;61;20376;-52
2023/12/21 06:18:25;0.00;0.00;0.62;0.00;0.00;0.62;1.47;0.60;;;21.30;27.50;;;;;;2264625;61;20368;-53
2023/12/21 06:21:10;0.00;0.00;0.62;0.00;0.00;0.62;1.30;0.70;;;21.40;27.60;;;;;;2264008;61;20355;-55
2023/12/21 06:23:54;0.00;0.00;0.62;0.00;0.00;0.62;1.30;0.60;;;21.40;27.60;;;;;;2264356;61;20860;-53
2023/12/21 06:26:39;0.00;0.00;0.62;0.00;0.00;0.62;1.40;0.70;;;21.30;27.50;;;;;;2264489;61;20363;-51
2023/12/21 06:29:24;0.00;0.00;0.62;0.00;0.00;0.62;1.40;0.80;;;21.40;27.60;;;;;;2264009;61;20384;-56
2023/12/21 06:32:10;0.00;0.00;0.62;0.00;0.00;0.62;1.40;0.70;;;21.40;27.60;;;;;;2264054;61;20387;-53
2023/12/21 06:34:55;0.00;0.00;0.62;0.00;0.00;0.62;1.20;0.60;;;21.30;27.50;;;;;;2264388;61;20406;-52
2023/12/21 06:37:40;0.00;0.00;0.62;0.00;0.00;0.62;1.30;0.70;;;21.30;27.50;;;;;;2264409;61;20395;-54
2023/12/21 06:40:24;0.00;0.00;0.62;0.00;0.00;0.62;1.30;0.70;;;21.30;27.50;;;;;;2264314;61;20387;-56
2023/12/21 06:43:09;0.00;0.00;0.62;0.00;0.00;0.62;1.30;0.70;;;21.30;27.50;;;;;;2263580;61;20845;-50
2023/12/21 06:45:54;0.00;0.00;0.62;0.00;0.00;0.62;1.20;0.60;;;21.40;27.60;;;;;;2264807;61;20814;-54
2023/12/21 06:48:44;0.00;0.00;0.62;0.00;0.00;0.62;2.53;0.90;;;21.40;27.60;;;;;;2264270;61;20395;-51
2023/12/21 06:51:28;0.00;0.00;0.62;0.00;0.00;0.62;1.50;0.80;;;21.30;27.50;;;;;;2264032;61;20384;-51
2023/12/21 06:53:55;0.00;0.00;0.62;0.00;0.00;0.62;1.47;0.70;;;21.40;27.60;;;;;;2260041;61;20364;-56
2023/12/21 06:56:22;0.00;0.00;0.62;0.00;0.00;0.62;1.30;0.70;;;21.40;27.60;;;;;;2264491;61;20548;-53
2023/12/21 06:59:06;0.00;0.00;0.62;0.00;0.00;0.62;1.60;0.87;;;21.40;27.60;;;;;;2264178;61;20441;-54
2023/12/21 07:01:50;0.00;0.00;0.62;0.00;0.00;0.62;1.50;0.80;;;21.40;27.60;;;;;;2264047;61;20364;-53
2023/12/21 07:04:36;0.00;0.00;0.62;0.00;0.00;0.62;1.80;0.83;;;21.30;27.50;;;;;;2264131;61;20364;-55
2023/12/21 07:07:21;0.00;0.00;0.62;0.00;0.00;0.62;1.47;0.77;;;21.40;27.60;;;;;;2264480;61;20373;-52
2023/12/21 07:10:08;0.00;0.00;0.62;0.00;0.00;0.62;1.43;0.80;;;21.40;27.60;;;;;;2264443;61;20791;-52
2023/12/21 07:12:53;0.00;0.00;0.62;0.00;0.00;0.62;1.60;0.70;;;21.40;27.60;;;;;;2263530;61;20386;-55
2023/12/21 07:15:37;0.00;0.00;0.62;0.00;0.00;0.62;1.50;0.70;;;21.30;27.50;;;;;;2265301;61;20514;-54
2023/12/21 07:18:22;0.00;0.00;0.62;0.00;0.00;0.62;1.40;0.83;;;21.40;27.60;;;;;;2265124;61;20359;-52
2023/12/21 07:21:08;0.00;0.00;0.62;0.00;0.00;0.62;1.67;0.80;;;21.40;27.60;;;;;;2264410;61;20363;-54
2023/12/21 07:23:53;0.00;0.00;0.62;0.00;0.00;0.62;1.50;0.80;;;21.40;27.60;;;;;;2264960;61;20404;-53
2023/12/21 07:26:37;0.00;0.00;0.62;0.00;0.00;0.62;1.47;0.70;;;21.40;27.60;;;;;;2265169;61;20769;-55
2023/12/21 07:29:22;0.00;0.00;0.62;0.00;0.00;0.62;1.60;0.87;;;21.40;27.60;;;;;;2264353;61;20379;-56
2023/12/21 07:32:07;0.00;0.00;0.62;0.00;0.00;0.62;1.97;0.90;;;21.40;27.60;;;;;;2264574;61;20450;-53
2023/12/21 07:34:51;0.00;0.00;0.62;0.00;0.00;0.62;1.60;1.00;;;21.40;27.60;;;;;;2264530;61;20375;-53
2023/12/21 07:37:37;0.00;0.00;0.62;0.00;0.00;0.62;1.83;0.90;;;21.40;27.60;;;;;;2265009;61;20360;-56
2023/12/21 07:40:22;0.00;0.00;0.62;0.00;0.00;0.62;1.87;1.03;;;21.40;27.60;;;;;;2264938;61;20384;-54
2023/12/21 07:43:06;0.00;0.00;0.62;0.00;0.00;0.62;1.60;0.87;;;21.40;27.70;;;;;;2264455;61;20395;-51
2023/12/21 07:45:52;0.00;0.00;0.62;0.00;0.00;0.62;1.90;0.90;;;21.40;27.70;;;;;;2265072;61;20359;-56
2023/12/21 07:48:37;0.00;0.00;0.62;0.00;0.00;0.62;2.03;1.07;;;21.40;27.70;;;;;;2261626;61;20468;-52
2023/12/21 07:51:21;0.00;0.00;0.62;0.00;0.00;0.62;1.90;0.90;;;21.40;27.70;;;;;;2264420;61;20442;-55
2023/12/21 07:54:07;0.00;0.00;0.62;0.00;0.00;0.62;1.70;1.10;;;21.40;27.70;;;;;;2264920;61;20364;-55
2023/12/21 07:56:52;0.00;0.00;0.62;0.00;0.00;0.62;1.40;0.80;;;21.40;27.70;;;;;;2264591;61;20879;-57
2023/12/21 07:59:37;0.00;0.00;0.62;0.00;0.00;0.62;1.70;1.03;;;21.40;27.70;;;;;;2264892;61;20430;-54
2023/12/21 08:02:22;0.00;0.00;0.62;0.00;0.00;0.62;2.30;1.13;;;21.40;27.70;;;;;;2264616;61;20877;-56
2023/12/21 08:05:07;0.00;0.00;0.62;0.00;0.00;0.62;1.63;0.97;;;21.40;27.70;;;;;;2264431;61;20380;-57
2023/12/21 08:07:52;0.00;0.00;0.62;0.00;0.00;0.62;1.30;0.70;;;21.30;27.60;;;;;;2265075;61;20426;-50
2023/12/21 08:10:38;0.00;0.00;0.62;0.00;0.00;0.62;1.97;0.90;;;21.40;27.70;;;;;;2264928;61;20412;-54
2023/12/21 08:13:23;0.00;0.00;0.62;0.00;0.00;0.62;1.50;0.80;;;21.40;27.70;;;;;;2264360;61;20345;-55
2023/12/21 08:16:07;0.00;0.00;0.62;0.00;0.00;0.62;1.50;0.77;;;21.40;27.70;;;;;;2264819;61;20436;-59
2023/12/21 08:18:52;0.00;0.00;0.62;0.00;0.00;0.62;1.70;0.90;;;21.40;27.70;;;;;;2264504;61;20438;-54
2023/12/21 08:21:36;0.00;0.00;0.62;0.00;0.00;0.62;1.80;1.03;;;21.40;27.70;;;;;;2264296;61;20906;-54
2023/12/21 08:24:22;0.00;0.00;0.62;0.00;0.00;0.62;1.80;0.93;;;21.40;27.70;;;;;;2264777;61;20779;-56
2023/12/21 08:27:08;0.00;0.00;0.62;0.00;0.00;0.62;1.40;0.70;;;21.40;27.80;;;;;;2264638;61;20356;-52
2023/12/21 08:29:53;0.00;0.00;0.62;0.00;0.00;0.62;1.60;0.90;;;21.40;27.80;;;;;;2264255;61;20422;-54
2023/12/21 08:32:37;0.00;0.00;0.62;0.00;0.00;0.62;1.60;0.90;;;21.40;27.70;;;;;;2264408;61;20407;-55
2023/12/21 08:35:22;0.00;0.00;0.62;0.00;0.00;0.62;1.73;0.90;;;21.40;27.80;;;;;;2264446;61;20364;-54
2023/12/21 08:38:08;0.00;0.00;0.62;0.00;0.00;0.62;1.70;0.90;;;21.40;27.80;;;;;;2264816;61;20839;-57
2023/12/21 08:40:53;0.00;0.00;0.62;0.00;0.00;0.62;2.00;1.00;;;21.40;27.80;;;;;;2264600;61;20368;-57
2023/12/21 08:43:39;0.00;0.00;0.62;0.00;0.00;0.62;1.80;1.03;;;21.40;27.80;;;;;;2264857;61;20360;-55
2023/12/21 08:46:24;0.00;0.00;0.62;0.00;0.00;0.62;2.30;0.93;;;21.40;27.80;;;;;;2264863;61;20418;-53
2023/12/21 08:49:12;0.00;0.00;0.62;0.00;0.00;0.62;1.73;0.90;;;21.40;27.80;;;;;;2263183;61;20390;-52
2023/12/21 08:51:57;0.00;0.00;0.62;0.00;0.00;0.62;1.50;0.70;;;21.40;27.80;;;;;;2262979;61;20399;-54
2023/12/21 08:54:42;0.00;0.00;0.62;0.00;0.00;0.62;1.30;0.80;;;21.40;27.80;;;;;;2264598;61;20426;-56
2023/12/21 08:57:27;0.00;0.00;0.62;0.00;0.00;0.62;1.60;0.87;;;21.40;27.80;;;;;;2260833;61;20368;-50
2023/12/21 09:00:14;0.00;0.00;0.62;0.00;0.00;0.62;1.53;0.77;;;21.40;27.80;;;;;;2264710;61;20507;-52
2023/12/21 09:02:58;0.00;0.00;0.62;0.00;0.00;0.62;1.40;0.80;;;21.40;27.80;;;;;;2264251;61;20360;-55
2023/12/21 09:05:43;0.00;0.00;0.62;0.00;0.00;0.62;1.50;0.90;;;21.40;27.80;;;;;;2264856;61;20814;-54
2023/12/21 09:08:27;0.00;0.00;0.62;0.00;0.00;0.62;1.57;0.80;;;21.40;27.80;;;;;;2264787;61;20364;-52
2023/12/21 09:11:12;0.00;0.00;0.62;0.00;0.00;0.62;1.50;0.90;;;21.40;27.80;;;;;;2264415;61;20519;-54
2023/12/21 09:13:57;0.00;0.00;0.62;0.00;0.00;0.62;1.90;1.10;;;21.40;27.80;;;;;;2264639;61;20364;-54
2023/12/21 09:16:43;0.00;0.00;0.62;0.00;0.00;0.62;1.57;0.93;;;21.40;27.80;;;;;;2264895;61;20391;-51
2023/12/21 09:19:28;0.00;0.00;0.62;0.00;0.00;0.62;1.50;1.00;;;21.40;27.80;;;;;;2264202;61;20387;-55
2023/12/21 09:22:13;0.00;0.00;0.62;0.00;0.00;0.62;1.50;0.80;;;21.40;27.90;;;;;;2264472;61;20404;-54
2023/12/21 09:24:57;0.00;0.00;0.62;0.00;0.00;0.62;1.50;0.83;;;21.40;27.90;;;;;;2264975;61;20359;-51
2023/12/21 09:27:43;0.00;0.00;0.62;0.00;0.00;0.62;1.33;0.70;;;21.40;27.90;;;;;;2264796;61;20364;-54
2023/12/21 09:30:29;0.00;0.00;0.62;0.00;0.00;0.62;1.73;0.97;;;21.40;27.90;;;;;;2264759;61;20387;-56
2023/12/21 09:33:18;0.00;0.00;0.62;0.00;0.00;0.62;2.93;0.87;;;21.40;27.90;;;;;;2263821;61;20387;-55
2023/12/21 09:36:03;0.00;0.00;0.62;0.00;0.00;0.62;1.60;0.80;;;21.40;27.90;;;;;;2264726;61;20364;-54
2023/12/21 09:38:48;0.00;0.00;0.62;0.00;0.00;0.62;1.60;0.90;;;21.40;27.90;;;;;;2264628;61;20843;-54
2023/12/21 09:41:32;0.00;0.00;0.62;0.00;0.00;0.62;1.80;1.30;;;21.40;27.90;;;;;;2260688;61;20775;-54
2023/12/21 09:44:20;0.00;0.00;0.62;0.00;0.00;0.62;1.77;1.00;;;21.40;27.90;;;;;;2264979;61;20367;-54
2023/12/21 09:47:05;0.00;0.00;0.62;0.00;0.00;0.62;2.43;0.90;;;21.40;27.90;;;;;;2264710;61;20403;-52
2023/12/21 09:49:51;0.00;0.00;0.62;0.00;0.00;0.62;1.40;0.70;;;21.40;27.90;;;;;;2264491;61;20387;-52
2023/12/21 09:52:37;0.00;0.00;0.62;0.00;0.00;0.62;1.40;0.70;;;21.40;27.90;;;;;;2264024;61;21031;-52
2023/12/21 09:55:23;0.00;0.00;0.62;0.00;0.00;0.62;1.40;0.80;;;21.40;27.90;;;;;;2264385;61;21178;-57
2023/12/21 09:58:09;0.00;0.00;0.62;0.00;0.00;0.62;1.50;0.80;;;21.40;27.90;;;;;;2264460;61;20382;-59
2023/12/21 10:00:55;0.00;0.00;0.62;0.00;0.00;0.62;1.70;0.90;;;21.40;27.90;;;;;;2263172;61;20908;-59
2023/12/21 10:03:40;0.00;0.00;0.62;0.00;0.00;0.62;1.63;0.90;;;21.40;27.90;;;;;;2263168;61;20375;-56
2023/12/21 10:06:26;0.00;0.00;0.62;0.00;0.00;0.62;1.50;0.87;;;21.40;27.90;;;;;;2264331;61;20364;-54
2023/12/21 10:09:12;0.00;0.00;0.62;0.00;0.00;0.62;1.40;0.73;;;21.40;27.90;;;;;;2264169;61;20387;-57
2023/12/21 10:11:57;0.00;0.00;0.62;0.00;0.00;0.62;1.40;0.80;;;21.40;28.00;;;;;;2263625;61;20422;-55
2023/12/21 10:14:43;0.00;0.00;0.62;0.00;0.00;0.62;1.30;0.70;;;21.40;28.00;;;;;;2260042;61;20364;-57
2023/12/21 10:17:28;0.00;0.00;0.62;0.00;0.00;0.62;1.60;1.00;;;21.40;28.00;;;;;;2263971;61;20405;-58
2023/12/21 10:20:13;0.00;0.00;0.62;0.00;0.00;0.62;1.40;0.80;;;21.40;28.00;;;;;;2264252;61;20456;-57
2023/12/21 10:22:59;0.00;0.00;0.62;0.00;0.00;0.62;1.70;0.93;;;21.40;27.90;;;;;;2264026;61;20360;-58
2023/12/21 10:25:46;0.00;0.00;0.62;0.00;0.00;0.62;1.60;0.90;;;21.40;28.00;;;;;;2263908;61;20876;-56
2023/12/21 10:28:31;0.00;0.00;0.62;0.00;0.00;0.62;1.83;1.00;;;21.40;28.00;;;;;;2263816;61;20398;-54
2023/12/21 10:31:16;0.00;0.00;0.62;0.00;0.00;0.62;1.80;0.80;;;21.40;28.00;;;;;;2264236;61;20360;-52
2023/12/21 10:34:02;0.00;0.00;0.62;0.00;0.00;0.62;1.80;0.83;;;21.40;28.00;;;;;;2263934;61;20769;-57
2023/12/21 10:36:46;0.00;0.00;0.62;0.00;0.00;0.62;2.03;1.00;;;21.40;28.00;;;;;;2266760;61;20368;-61
2023/12/21 10:39:33;0.00;0.00;0.62;0.00;0.00;0.62;1.30;0.70;;;21.40;28.00;;;;;;2264058;61;20848;-59
2023/12/21 10:42:19;0.00;0.00;0.62;0.00;0.00;0.62;1.70;1.00;;;21.40;28.00;;;;;;2263890;61;20771;-54
2023/12/21 10:45:05;0.00;0.00;0.62;0.00;0.00;0.62;1.50;0.90;;;21.40;28.00;;;;;;2264368;61;20436;-54
2023/12/21 10:47:53;0.00;0.00;0.62;0.00;0.00;0.62;1.80;0.90;;;21.50;28.10;;;;;;2263978;61;20414;-57
2023/12/21 10:50:39;0.00;0.00;0.62;0.00;0.00;0.62;1.53;0.80;;;21.40;28.00;;;;;;2265107;61;20425;-55